sensor_id;sensor_type;location;lat;lon;timestamp;temperature;humidity
5960;DHT22;3006;50.956;7.002;2024-02-16T00:02:10;12.20;79.10
5960;DHT22;3006;50.956;7.002;2024-02-16T00:04:39;12.20;79.10
5960;DHT22;3006;50.956;7.002;2024-02-16T00:07:07;12.10;79.40
5960;DHT22;3006;50.956;7.002;2024-02-16T00:09:35;12.20;79.40
5960;DHT22;3006;50.956;7.002;2024-02-16T00:12:04;12.20;79.10
5960;DHT22;3006;50.956;7.002;2024-02-16T00:14:33;12.20;79.20
5960;DHT22;3006;50.956;7.002;2024-02-16T00:17:01;12.20;79.20
5960;DHT22;3006;50.956;7.002;2024-02-16T00:19:30;12.20;79.00
5960;DHT22;3006;50.956;7.002;2024-02-16T00:22:00;12.20;79.00
5960;DHT22;3006;50.956;7.002;2024-02-16T00:24:28;12.20;79.10
5960;DHT22;3006;50.956;7.002;2024-02-16T00:26:58;12.20;79.00
5960;DHT22;3006;50.956;7.002;2024-02-16T00:29:26;12.20;78.90
5960;DHT22;3006;50.956;7.002;2024-02-16T00:31:55;12.20;79.20
5960;DHT22;3006;50.956;7.002;2024-02-16T00:34:23;12.20;79.00
5960;DHT22;3006;50.956;7.002;2024-02-16T00:36:51;12.20;79.00
5960;DHT22;3006;50.956;7.002;2024-02-16T00:39:21;12.20;79.10
5960;DHT22;3006;50.956;7.002;2024-02-16T00:41:50;12.20;79.20
5960;DHT22;3006;50.956;7.002;2024-02-16T00:44:18;12.20;79.00
5960;DHT22;3006;50.956;7.002;2024-02-16T00:46:46;12.20;79.00
5960;DHT22;3006;50.956;7.002;2024-02-16T00:49:14;12.20;78.90
5960;DHT22;3006;50.956;7.002;2024-02-16T00:51:42;12.20;78.90
5960;DHT22;3006;50.956;7.002;2024-02-16T00:54:10;12.30;78.70
5960;DHT22;3006;50.956;7.002;2024-02-16T00:56:40;12.20;78.90
5960;DHT22;3006;50.956;7.002;2024-02-16T00:59:08;12.20;78.80
5960;DHT22;3006;50.956;7.002;2024-02-16T01:01:36;12.20;78.80
5960;DHT22;3006;50.956;7.002;2024-02-16T01:04:05;12.20;78.80
5960;DHT22;3006;50.956;7.002;2024-02-16T01:06:34;12.20;78.90
5960;DHT22;3006;50.956;7.002;2024-02-16T01:09:02;12.20;78.90
5960;DHT22;3006;50.956;7.002;2024-02-16T01:11:30;12.20;78.80
5960;DHT22;3006;50.956;7.002;2024-02-16T01:14:00;12.20;78.90
5960;DHT22;3006;50.956;7.002;2024-02-16T01:16:28;12.20;78.90
5960;DHT22;3006;50.956;7.002;2024-02-16T01:18:56;12.20;78.90
5960;DHT22;3006;50.956;7.002;2024-02-16T01:21:24;12.20;78.70
5960;DHT22;3006;50.956;7.002;2024-02-16T01:23:53;12.30;78.60
5960;DHT22;3006;50.956;7.002;2024-02-16T01:26:21;12.20;78.70
5960;DHT22;3006;50.956;7.002;2024-02-16T01:28:49;12.20;78.70
5960;DHT22;3006;50.956;7.002;2024-02-16T01:31:19;12.20;78.80
5960;DHT22;3006;50.956;7.002;2024-02-16T01:33:47;12.20;78.60
5960;DHT22;3006;50.956;7.002;2024-02-16T01:36:15;12.20;78.60
5960;DHT22;3006;50.956;7.002;2024-02-16T01:38:43;12.20;78.60
5960;DHT22;3006;50.956;7.002;2024-02-16T01:41:12;12.20;78.60
5960;DHT22;3006;50.956;7.002;2024-02-16T01:43:42;12.20;78.40
5960;DHT22;3006;50.956;7.002;2024-02-16T01:46:10;12.30;78.30
5960;DHT22;3006;50.956;7.002;2024-02-16T01:48:39;12.30;78.40
5960;DHT22;3006;50.956;7.002;2024-02-16T01:51:08;12.20;78.40
5960;DHT22;3006;50.956;7.002;2024-02-16T01:53:37;12.20;78.30
5960;DHT22;3006;50.956;7.002;2024-02-16T01:56:06;12.20;78.30
5960;DHT22;3006;50.956;7.002;2024-02-16T01:58:34;12.30;78.20
5960;DHT22;3006;50.956;7.002;2024-02-16T02:01:02;12.30;78.20
5960;DHT22;3006;50.956;7.002;2024-02-16T02:03:31;12.30;78.20
5960;DHT22;3006;50.956;7.002;2024-02-16T02:06:01;12.30;78.00
5960;DHT22;3006;50.956;7.002;2024-02-16T02:08:30;12.30;78.10
5960;DHT22;3006;50.956;7.002;2024-02-16T02:10:59;12.40;77.80
5960;DHT22;3006;50.956;7.002;2024-02-16T02:13:29;12.40;77.70
5960;DHT22;3006;50.956;7.002;2024-02-16T02:15:58;12.30;78.00
5960;DHT22;3006;50.956;7.002;2024-02-16T02:18:26;12.40;78.00
5960;DHT22;3006;50.956;7.002;2024-02-16T02:20:54;12.40;77.90
5960;DHT22;3006;50.956;7.002;2024-02-16T02:23:24;12.30;78.10
5960;DHT22;3006;50.956;7.002;2024-02-16T02:25:52;12.40;78.00
5960;DHT22;3006;50.956;7.002;2024-02-16T02:28:20;12.30;78.20
5960;DHT22;3006;50.956;7.002;2024-02-16T02:30:50;12.30;78.40
5960;DHT22;3006;50.956;7.002;2024-02-16T02:33:20;12.30;78.60
5960;DHT22;3006;50.956;7.002;2024-02-16T02:35:48;12.30;78.90
5960;DHT22;3006;50.956;7.002;2024-02-16T02:38:17;12.30;79.00
5960;DHT22;3006;50.956;7.002;2024-02-16T02:40:46;12.20;79.30
5960;DHT22;3006;50.956;7.002;2024-02-16T02:43:14;12.30;79.10
5960;DHT22;3006;50.956;7.002;2024-02-16T02:45:42;12.30;78.90
5960;DHT22;3006;50.956;7.002;2024-02-16T02:48:10;12.30;79.00
5960;DHT22;3006;50.956;7.002;2024-02-16T02:50:39;12.30;79.10
5960;DHT22;3006;50.956;7.002;2024-02-16T02:53:06;12.30;79.10
5960;DHT22;3006;50.956;7.002;2024-02-16T02:55:34;12.30;79.20
5960;DHT22;3006;50.956;7.002;2024-02-16T02:58:04;12.40;79.00
5960;DHT22;3006;50.956;7.002;2024-02-16T03:00:32;12.40;79.10
5960;DHT22;3006;50.956;7.002;2024-02-16T03:03:00;12.40;79.10
5960;DHT22;3006;50.956;7.002;2024-02-16T03:05:28;12.30;79.20
5960;DHT22;3006;50.956;7.002;2024-02-16T03:07:56;12.30;79.40
5960;DHT22;3006;50.956;7.002;2024-02-16T03:10:25;12.50;79.00
5960;DHT22;3006;50.956;7.002;2024-02-16T03:12:54;12.50;79.50
5960;DHT22;3006;50.956;7.002;2024-02-16T03:15:23;12.50;80.20
5960;DHT22;3006;50.956;7.002;2024-02-16T03:17:51;12.50;81.00
5960;DHT22;3006;50.956;7.002;2024-02-16T03:20:20;12.30;81.30
5960;DHT22;3006;50.956;7.002;2024-02-16T03:22:49;12.30;81.50
5960;DHT22;3006;50.956;7.002;2024-02-16T03:25:17;12.30;81.60
5960;DHT22;3006;50.956;7.002;2024-02-16T03:27:45;12.30;81.40
5960;DHT22;3006;50.956;7.002;2024-02-16T03:30:13;12.30;81.50
5960;DHT22;3006;50.956;7.002;2024-02-16T03:32:43;12.30;81.40
5960;DHT22;3006;50.956;7.002;2024-02-16T03:35:15;12.30;81.20
5960;DHT22;3006;50.956;7.002;2024-02-16T03:37:43;12.30;81.20
5960;DHT22;3006;50.956;7.002;2024-02-16T03:40:12;12.40;81.00
5960;DHT22;3006;50.956;7.002;2024-02-16T03:42:40;12.30;81.20
5960;DHT22;3006;50.956;7.002;2024-02-16T03:45:09;12.40;81.20
5960;DHT22;3006;50.956;7.002;2024-02-16T03:47:40;12.40;81.20
5960;DHT22;3006;50.956;7.002;2024-02-16T03:50:10;12.30;81.40
5960;DHT22;3006;50.956;7.002;2024-02-16T03:52:38;12.40;81.60
5960;DHT22;3006;50.956;7.002;2024-02-16T03:55:07;12.30;81.50
5960;DHT22;3006;50.956;7.002;2024-02-16T03:57:36;12.40;81.70
5960;DHT22;3006;50.956;7.002;2024-02-16T04:00:06;12.40;82.00
5960;DHT22;3006;50.956;7.002;2024-02-16T04:02:41;12.40;82.10
5960;DHT22;3006;50.956;7.002;2024-02-16T04:05:10;12.40;82.20
5960;DHT22;3006;50.956;7.002;2024-02-16T04:07:38;12.40;82.20
5960;DHT22;3006;50.956;7.002;2024-02-16T04:10:08;12.30;82.60
5960;DHT22;3006;50.956;7.002;2024-02-16T04:12:36;12.30;82.80
5960;DHT22;3006;50.956;7.002;2024-02-16T04:15:04;12.20;83.30
5960;DHT22;3006;50.956;7.002;2024-02-16T04:17:33;12.20;83.50
5960;DHT22;3006;50.956;7.002;2024-02-16T04:20:01;12.20;83.70
5960;DHT22;3006;50.956;7.002;2024-02-16T04:22:31;12.20;83.80
5960;DHT22;3006;50.956;7.002;2024-02-16T04:25:05;12.20;84.00
5960;DHT22;3006;50.956;7.002;2024-02-16T04:27:33;12.30;84.00
5960;DHT22;3006;50.956;7.002;2024-02-16T04:30:01;12.30;84.20
5960;DHT22;3006;50.956;7.002;2024-02-16T04:32:30;12.20;84.20
5960;DHT22;3006;50.956;7.002;2024-02-16T04:34:58;12.20;84.50
5960;DHT22;3006;50.956;7.002;2024-02-16T04:37:26;12.20;84.60
5960;DHT22;3006;50.956;7.002;2024-02-16T04:39:56;12.20;84.80
5960;DHT22;3006;50.956;7.002;2024-02-16T04:42:24;12.20;84.80
5960;DHT22;3006;50.956;7.002;2024-02-16T04:44:52;12.10;85.30
5960;DHT22;3006;50.956;7.002;2024-02-16T04:47:21;12.10;85.60
5960;DHT22;3006;50.956;7.002;2024-02-16T04:49:49;12.10;85.40
5960;DHT22;3006;50.956;7.002;2024-02-16T04:52:17;12.10;85.50
5960;DHT22;3006;50.956;7.002;2024-02-16T04:54:45;12.10;85.50
5960;DHT22;3006;50.956;7.002;2024-02-16T04:57:15;12.10;85.70
5960;DHT22;3006;50.956;7.002;2024-02-16T04:59:43;12.10;85.50
5960;DHT22;3006;50.956;7.002;2024-02-16T05:02:11;12.10;85.50
5960;DHT22;3006;50.956;7.002;2024-02-16T05:04:40;12.10;85.50
5960;DHT22;3006;50.956;7.002;2024-02-16T05:07:08;12.10;85.70
5960;DHT22;3006;50.956;7.002;2024-02-16T05:09:36;12.10;85.70
5960;DHT22;3006;50.956;7.002;2024-02-16T05:12:07;12.10;85.50
5960;DHT22;3006;50.956;7.002;2024-02-16T05:14:38;12.10;85.50
5960;DHT22;3006;50.956;7.002;2024-02-16T05:17:07;12.20;85.20
5960;DHT22;3006;50.956;7.002;2024-02-16T05:19:35;12.20;85.00
5960;DHT22;3006;50.956;7.002;2024-02-16T05:22:03;12.20;85.10
5960;DHT22;3006;50.956;7.002;2024-02-16T05:24:32;12.20;85.20
5960;DHT22;3006;50.956;7.002;2024-02-16T05:27:00;12.20;85.00
5960;DHT22;3006;50.956;7.002;2024-02-16T05:29:28;12.20;84.50
5960;DHT22;3006;50.956;7.002;2024-02-16T05:31:58;12.20;84.40
5960;DHT22;3006;50.956;7.002;2024-02-16T05:34:27;12.20;84.50
5960;DHT22;3006;50.956;7.002;2024-02-16T05:36:59;12.20;84.50
5960;DHT22;3006;50.956;7.002;2024-02-16T05:39:28;12.20;84.40
5960;DHT22;3006;50.956;7.002;2024-02-16T05:41:59;12.20;84.50
5960;DHT22;3006;50.956;7.002;2024-02-16T05:44:27;12.20;84.60
5960;DHT22;3006;50.956;7.002;2024-02-16T05:46:55;12.20;84.40
5960;DHT22;3006;50.956;7.002;2024-02-16T05:49:25;12.20;84.40
5960;DHT22;3006;50.956;7.002;2024-02-16T05:51:54;12.20;84.30
5960;DHT22;3006;50.956;7.002;2024-02-16T05:54:41;12.10;84.40
5960;DHT22;3006;50.956;7.002;2024-02-16T05:57:10;12.10;84.40
5960;DHT22;3006;50.956;7.002;2024-02-16T05:59:39;12.10;84.40
5960;DHT22;3006;50.956;7.002;2024-02-16T06:02:08;12.10;84.50
5960;DHT22;3006;50.956;7.002;2024-02-16T06:04:39;12.10;84.50
5960;DHT22;3006;50.956;7.002;2024-02-16T06:07:08;12.10;84.10
5960;DHT22;3006;50.956;7.002;2024-02-16T06:09:38;12.20;84.00
5960;DHT22;3006;50.956;7.002;2024-02-16T06:12:07;12.20;84.00
5960;DHT22;3006;50.956;7.002;2024-02-16T06:14:36;12.10;83.90
5960;DHT22;3006;50.956;7.002;2024-02-16T06:17:04;12.20;83.80
5960;DHT22;3006;50.956;7.002;2024-02-16T06:19:33;12.20;83.70
5960;DHT22;3006;50.956;7.002;2024-02-16T06:22:03;12.20;83.60
5960;DHT22;3006;50.956;7.002;2024-02-16T06:24:31;12.20;83.40
5960;DHT22;3006;50.956;7.002;2024-02-16T06:26:59;12.20;83.40
5960;DHT22;3006;50.956;7.002;2024-02-16T06:29:53;12.20;83.10
5960;DHT22;3006;50.956;7.002;2024-02-16T06:32:21;12.30;82.70
5960;DHT22;3006;50.956;7.002;2024-02-16T06:34:49;12.30;82.60
5960;DHT22;3006;50.956;7.002;2024-02-16T06:37:19;12.30;82.40
5960;DHT22;3006;50.956;7.002;2024-02-16T06:39:47;12.30;82.30
5960;DHT22;3006;50.956;7.002;2024-02-16T06:42:15;12.40;82.10
5960;DHT22;3006;50.956;7.002;2024-02-16T06:44:43;12.50;82.00
5960;DHT22;3006;50.956;7.002;2024-02-16T06:47:11;12.50;81.80
5960;DHT22;3006;50.956;7.002;2024-02-16T06:49:40;12.50;81.90
5960;DHT22;3006;50.956;7.002;2024-02-16T06:52:09;12.50;82.00
5960;DHT22;3006;50.956;7.002;2024-02-16T06:54:38;12.50;81.90
5960;DHT22;3006;50.956;7.002;2024-02-16T06:57:07;12.50;81.60
5960;DHT22;3006;50.956;7.002;2024-02-16T06:59:37;12.50;81.50
5960;DHT22;3006;50.956;7.002;2024-02-16T07:02:05;12.60;81.20
5960;DHT22;3006;50.956;7.002;2024-02-16T07:04:34;12.60;81.10
5960;DHT22;3006;50.956;7.002;2024-02-16T07:07:02;12.60;81.20
5960;DHT22;3006;50.956;7.002;2024-02-16T07:09:33;13.70;86.10
5960;DHT22;3006;50.956;7.002;2024-02-16T07:12:04;14.40;79.70
5960;DHT22;3006;50.956;7.002;2024-02-16T07:14:33;15.00;75.10
5960;DHT22;3006;50.956;7.002;2024-02-16T07:17:02;15.30;72.00
5960;DHT22;3006;50.956;7.002;2024-02-16T07:19:30;15.50;70.70
5960;DHT22;3006;50.956;7.002;2024-02-16T07:21:58;15.10;72.00
5960;DHT22;3006;50.956;7.002;2024-02-16T07:24:26;15.40;70.50
5960;DHT22;3006;50.956;7.002;2024-02-16T07:26:55;15.40;70.30
5960;DHT22;3006;50.956;7.002;2024-02-16T07:29:25;15.40;70.40
5960;DHT22;3006;50.956;7.002;2024-02-16T07:31:54;15.30;70.70
5960;DHT22;3006;50.956;7.002;2024-02-16T07:34:23;15.40;71.90
5960;DHT22;3006;50.956;7.002;2024-02-16T07:36:51;14.40;74.20
5960;DHT22;3006;50.956;7.002;2024-02-16T07:39:20;13.70;76.60
5960;DHT22;3006;50.956;7.002;2024-02-16T07:41:50;13.30;78.20
5960;DHT22;3006;50.956;7.002;2024-02-16T07:44:18;13.30;78.70
5960;DHT22;3006;50.956;7.002;2024-02-16T07:46:48;13.20;79.40
5960;DHT22;3006;50.956;7.002;2024-02-16T07:49:17;13.10;79.70
5960;DHT22;3006;50.956;7.002;2024-02-16T07:51:46;13.10;80.00
5960;DHT22;3006;50.956;7.002;2024-02-16T07:54:14;13.10;80.00
5960;DHT22;3006;50.956;7.002;2024-02-16T07:56:43;13.10;80.50
5960;DHT22;3006;50.956;7.002;2024-02-16T07:59:11;13.10;80.50
5960;DHT22;3006;50.956;7.002;2024-02-16T08:01:39;13.10;80.70
5960;DHT22;3006;50.956;7.002;2024-02-16T08:04:12;13.10;81.10
5960;DHT22;3006;50.956;7.002;2024-02-16T08:06:41;13.00;81.40
5960;DHT22;3006;50.956;7.002;2024-02-16T08:09:09;13.10;81.80
5960;DHT22;3006;50.956;7.002;2024-02-16T08:11:37;13.00;81.90
5960;DHT22;3006;50.956;7.002;2024-02-16T08:14:05;13.00;81.90
5960;DHT22;3006;50.956;7.002;2024-02-16T08:16:35;13.10;81.80
5960;DHT22;3006;50.956;7.002;2024-02-16T08:19:03;13.00;82.20
5960;DHT22;3006;50.956;7.002;2024-02-16T08:21:32;13.00;82.60
5960;DHT22;3006;50.956;7.002;2024-02-16T08:24:01;13.00;82.50
5960;DHT22;3006;50.956;7.002;2024-02-16T08:26:29;13.00;82.40
5960;DHT22;3006;50.956;7.002;2024-02-16T08:28:57;13.10;82.20
5960;DHT22;3006;50.956;7.002;2024-02-16T08:31:26;13.10;81.70
5960;DHT22;3006;50.956;7.002;2024-02-16T08:33:54;13.10;81.70
5960;DHT22;3006;50.956;7.002;2024-02-16T08:36:22;13.10;81.70
5960;DHT22;3006;50.956;7.002;2024-02-16T08:38:56;13.10;81.90
5960;DHT22;3006;50.956;7.002;2024-02-16T08:41:24;13.20;81.90
5960;DHT22;3006;50.956;7.002;2024-02-16T08:43:52;13.20;82.10
5960;DHT22;3006;50.956;7.002;2024-02-16T08:46:21;13.10;82.80
5960;DHT22;3006;50.956;7.002;2024-02-16T08:48:50;13.20;83.00
5960;DHT22;3006;50.956;7.002;2024-02-16T08:51:20;13.20;83.20
5960;DHT22;3006;50.956;7.002;2024-02-16T08:53:48;13.30;83.70
5960;DHT22;3006;50.956;7.002;2024-02-16T08:56:18;13.30;83.40
5960;DHT22;3006;50.956;7.002;2024-02-16T08:58:46;13.30;83.30
5960;DHT22;3006;50.956;7.002;2024-02-16T09:01:14;13.30;83.10
5960;DHT22;3006;50.956;7.002;2024-02-16T09:03:43;13.30;83.40
5960;DHT22;3006;50.956;7.002;2024-02-16T09:06:11;13.30;83.20
5960;DHT22;3006;50.956;7.002;2024-02-16T09:08:40;13.40;83.30
5960;DHT22;3006;50.956;7.002;2024-02-16T09:11:08;13.50;83.00
5960;DHT22;3006;50.956;7.002;2024-02-16T09:13:39;13.50;82.80
5960;DHT22;3006;50.956;7.002;2024-02-16T09:16:07;13.50;82.30
5960;DHT22;3006;50.956;7.002;2024-02-16T09:18:36;13.50;82.00
5960;DHT22;3006;50.956;7.002;2024-02-16T09:21:05;13.50;81.30
5960;DHT22;3006;50.956;7.002;2024-02-16T09:23:34;13.60;80.70
5960;DHT22;3006;50.956;7.002;2024-02-16T09:26:03;13.60;80.40
5960;DHT22;3006;50.956;7.002;2024-02-16T09:28:31;13.60;80.10
5960;DHT22;3006;50.956;7.002;2024-02-16T09:31:01;13.60;80.10
5960;DHT22;3006;50.956;7.002;2024-02-16T09:33:30;13.60;79.80
5960;DHT22;3006;50.956;7.002;2024-02-16T09:35:58;13.60;79.20
5960;DHT22;3006;50.956;7.002;2024-02-16T09:38:27;13.60;79.80
5960;DHT22;3006;50.956;7.002;2024-02-16T09:41:01;13.60;80.20
5960;DHT22;3006;50.956;7.002;2024-02-16T09:43:30;13.60;80.30
5960;DHT22;3006;50.956;7.002;2024-02-16T09:46:00;13.70;80.70
5960;DHT22;3006;50.956;7.002;2024-02-16T09:48:28;13.70;80.70
5960;DHT22;3006;50.956;7.002;2024-02-16T09:50:57;13.70;80.50
5960;DHT22;3006;50.956;7.002;2024-02-16T09:53:28;13.70;80.70
5960;DHT22;3006;50.956;7.002;2024-02-16T09:55:56;13.70;80.40
5960;DHT22;3006;50.956;7.002;2024-02-16T09:58:24;13.70;80.80
5960;DHT22;3006;50.956;7.002;2024-02-16T10:00:53;13.70;80.50
5960;DHT22;3006;50.956;7.002;2024-02-16T10:03:25;13.70;80.50
5960;DHT22;3006;50.956;7.002;2024-02-16T10:06:04;13.70;80.50
5960;DHT22;3006;50.956;7.002;2024-02-16T10:08:34;13.60;81.00
5960;DHT22;3006;50.956;7.002;2024-02-16T10:11:02;13.60;81.10
5960;DHT22;3006;50.956;7.002;2024-02-16T10:13:31;13.60;81.10
5960;DHT22;3006;50.956;7.002;2024-02-16T10:16:06;13.50;81.20
5960;DHT22;3006;50.956;7.002;2024-02-16T10:18:37;13.60;81.30
5960;DHT22;3006;50.956;7.002;2024-02-16T10:21:07;13.60;81.50
5960;DHT22;3006;50.956;7.002;2024-02-16T10:23:36;13.60;81.30
5960;DHT22;3006;50.956;7.002;2024-02-16T10:26:07;13.70;81.20
5960;DHT22;3006;50.956;7.002;2024-02-16T10:28:35;13.60;81.30
5960;DHT22;3006;50.956;7.002;2024-02-16T10:31:04;13.70;81.30
5960;DHT22;3006;50.956;7.002;2024-02-16T10:33:32;13.60;81.20
5960;DHT22;3006;50.956;7.002;2024-02-16T10:36:03;13.60;81.60
5960;DHT22;3006;50.956;7.002;2024-02-16T10:38:32;13.70;81.40
5960;DHT22;3006;50.956;7.002;2024-02-16T10:41:01;13.60;81.70
5960;DHT22;3006;50.956;7.002;2024-02-16T10:43:31;13.60;82.10
5960;DHT22;3006;50.956;7.002;2024-02-16T10:45:59;13.60;82.40
5960;DHT22;3006;50.956;7.002;2024-02-16T10:48:27;13.60;82.40
5960;DHT22;3006;50.956;7.002;2024-02-16T10:50:56;13.50;82.50
5960;DHT22;3006;50.956;7.002;2024-02-16T10:53:27;13.50;83.00
5960;DHT22;3006;50.956;7.002;2024-02-16T10:55:58;13.50;83.60
5960;DHT22;3006;50.956;7.002;2024-02-16T10:58:27;13.50;84.20
5960;DHT22;3006;50.956;7.002;2024-02-16T11:00:56;13.50;84.60
5960;DHT22;3006;50.956;7.002;2024-02-16T11:03:26;13.50;84.90
5960;DHT22;3006;50.956;7.002;2024-02-16T11:05:56;13.50;85.20
5960;DHT22;3006;50.956;7.002;2024-02-16T11:08:27;13.50;85.70
5960;DHT22;3006;50.956;7.002;2024-02-16T11:10:58;13.50;85.30
5960;DHT22;3006;50.956;7.002;2024-02-16T11:13:27;13.50;85.60
5960;DHT22;3006;50.956;7.002;2024-02-16T11:16:00;13.50;85.70
5960;DHT22;3006;50.956;7.002;2024-02-16T11:18:29;13.50;85.70
5960;DHT22;3006;50.956;7.002;2024-02-16T11:21:00;13.50;85.70
5960;DHT22;3006;50.956;7.002;2024-02-16T11:23:31;13.50;85.50
5960;DHT22;3006;50.956;7.002;2024-02-16T11:26:00;13.50;85.60
5960;DHT22;3006;50.956;7.002;2024-02-16T11:28:32;13.60;85.50
5960;DHT22;3006;50.956;7.002;2024-02-16T11:31:01;13.60;85.50
5960;DHT22;3006;50.956;7.002;2024-02-16T11:33:30;13.70;85.40
5960;DHT22;3006;50.956;7.002;2024-02-16T11:36:00;13.70;85.50
5960;DHT22;3006;50.956;7.002;2024-02-16T11:38:31;13.60;85.70
5960;DHT22;3006;50.956;7.002;2024-02-16T11:41:01;13.60;85.50
5960;DHT22;3006;50.956;7.002;2024-02-16T11:43:30;13.60;85.80
5960;DHT22;3006;50.956;7.002;2024-02-16T11:45:59;13.60;85.80
5960;DHT22;3006;50.956;7.002;2024-02-16T11:48:27;13.70;85.70
5960;DHT22;3006;50.956;7.002;2024-02-16T11:51:00;13.80;85.70
5960;DHT22;3006;50.956;7.002;2024-02-16T11:53:31;13.90;85.50
5960;DHT22;3006;50.956;7.002;2024-02-16T11:56:00;13.90;85.20
5960;DHT22;3006;50.956;7.002;2024-02-16T11:58:30;13.90;85.00
5960;DHT22;3006;50.956;7.002;2024-02-16T12:00:58;13.90;84.50
5960;DHT22;3006;50.956;7.002;2024-02-16T12:03:30;13.90;84.20
5960;DHT22;3006;50.956;7.002;2024-02-16T12:05:59;13.90;84.50
5960;DHT22;3006;50.956;7.002;2024-02-16T12:08:34;13.90;85.00
5960;DHT22;3006;50.956;7.002;2024-02-16T12:11:02;13.70;85.90
5960;DHT22;3006;50.956;7.002;2024-02-16T12:13:31;13.80;86.30
5960;DHT22;3006;50.956;7.002;2024-02-16T12:16:02;13.70;86.70
5960;DHT22;3006;50.956;7.002;2024-02-16T12:18:30;13.70;86.90
5960;DHT22;3006;50.956;7.002;2024-02-16T12:20:59;13.70;87.40
5960;DHT22;3006;50.956;7.002;2024-02-16T12:23:29;13.70;87.40
5960;DHT22;3006;50.956;7.002;2024-02-16T12:25:59;13.80;87.50
5960;DHT22;3006;50.956;7.002;2024-02-16T12:28:28;13.70;87.60
5960;DHT22;3006;50.956;7.002;2024-02-16T12:30:59;13.70;87.90
5960;DHT22;3006;50.956;7.002;2024-02-16T12:33:30;13.60;88.20
5960;DHT22;3006;50.956;7.002;2024-02-16T12:35:58;13.60;88.20
5960;DHT22;3006;50.956;7.002;2024-02-16T12:38:27;13.60;88.70
5960;DHT22;3006;50.956;7.002;2024-02-16T12:40:55;13.60;88.80
5960;DHT22;3006;50.956;7.002;2024-02-16T12:43:24;13.60;88.60
5960;DHT22;3006;50.956;7.002;2024-02-16T12:45:53;13.70;88.70
5960;DHT22;3006;50.956;7.002;2024-02-16T12:48:21;13.70;89.00
5960;DHT22;3006;50.956;7.002;2024-02-16T12:50:50;13.70;89.00
5960;DHT22;3006;50.956;7.002;2024-02-16T12:53:19;13.70;89.30
5960;DHT22;3006;50.956;7.002;2024-02-16T12:55:47;13.70;89.60
5960;DHT22;3006;50.956;7.002;2024-02-16T12:58:15;13.80;89.00
5960;DHT22;3006;50.956;7.002;2024-02-16T13:00:45;13.80;89.00
5960;DHT22;3006;50.956;7.002;2024-02-16T13:03:13;13.70;89.40
5960;DHT22;3006;50.956;7.002;2024-02-16T13:05:41;13.70;90.20
5960;DHT22;3006;50.956;7.002;2024-02-16T13:08:13;13.70;90.30
5960;DHT22;3006;50.956;7.002;2024-02-16T13:10:42;13.70;91.40
5960;DHT22;3006;50.956;7.002;2024-02-16T13:13:10;13.60;93.50
5960;DHT22;3006;50.956;7.002;2024-02-16T13:15:38;13.50;95.00
5960;DHT22;3006;50.956;7.002;2024-02-16T13:18:08;13.50;95.30
5960;DHT22;3006;50.956;7.002;2024-02-16T13:20:36;13.50;95.80
5960;DHT22;3006;50.956;7.002;2024-02-16T13:23:04;13.50;96.30
5960;DHT22;3006;50.956;7.002;2024-02-16T13:25:34;13.40;96.60
5960;DHT22;3006;50.956;7.002;2024-02-16T13:28:02;13.30;97.20
5960;DHT22;3006;50.956;7.002;2024-02-16T13:30:31;13.40;97.20
5960;DHT22;3006;50.956;7.002;2024-02-16T13:32:59;13.40;97.40
5960;DHT22;3006;50.956;7.002;2024-02-16T13:35:29;13.30;97.70
5960;DHT22;3006;50.956;7.002;2024-02-16T13:37:57;13.30;98.00
5960;DHT22;3006;50.956;7.002;2024-02-16T13:40:25;13.30;98.50
5960;DHT22;3006;50.956;7.002;2024-02-16T13:42:53;13.30;98.60
5960;DHT22;3006;50.956;7.002;2024-02-16T13:45:28;13.30;98.10
5960;DHT22;3006;50.956;7.002;2024-02-16T13:47:57;13.30;98.20
5960;DHT22;3006;50.956;7.002;2024-02-16T13:50:26;13.30;97.90
5960;DHT22;3006;50.956;7.002;2024-02-16T13:52:55;13.30;98.30
5960;DHT22;3006;50.956;7.002;2024-02-16T13:55:24;13.30;98.20
5960;DHT22;3006;50.956;7.002;2024-02-16T13:57:53;13.30;98.40
5960;DHT22;3006;50.956;7.002;2024-02-16T14:00:21;13.30;98.50
5960;DHT22;3006;50.956;7.002;2024-02-16T14:02:49;13.30;98.00
5960;DHT22;3006;50.956;7.002;2024-02-16T14:05:18;13.30;98.20
5960;DHT22;3006;50.956;7.002;2024-02-16T14:07:46;13.30;98.20
5960;DHT22;3006;50.956;7.002;2024-02-16T14:10:27;13.40;98.00
5960;DHT22;3006;50.956;7.002;2024-02-16T14:12:56;13.30;97.50
5960;DHT22;3006;50.956;7.002;2024-02-16T14:15:24;13.30;97.40
5960;DHT22;3006;50.956;7.002;2024-02-16T14:17:56;13.30;97.20
5960;DHT22;3006;50.956;7.002;2024-02-16T14:20:24;13.30;97.50
5960;DHT22;3006;50.956;7.002;2024-02-16T14:22:53;13.30;97.70
5960;DHT22;3006;50.956;7.002;2024-02-16T14:25:22;13.30;97.90
5960;DHT22;3006;50.956;7.002;2024-02-16T14:27:53;13.30;97.90
5960;DHT22;3006;50.956;7.002;2024-02-16T14:30:22;13.30;97.90
5960;DHT22;3006;50.956;7.002;2024-02-16T14:32:50;13.30;97.40
5960;DHT22;3006;50.956;7.002;2024-02-16T14:35:21;13.50;96.80
5960;DHT22;3006;50.956;7.002;2024-02-16T14:37:49;13.50;96.50
5960;DHT22;3006;50.956;7.002;2024-02-16T14:40:18;13.50;96.40
5960;DHT22;3006;50.956;7.002;2024-02-16T14:42:46;13.50;96.40
5960;DHT22;3006;50.956;7.002;2024-02-16T14:45:15;13.50;96.20
5960;DHT22;3006;50.956;7.002;2024-02-16T14:47:48;13.50;95.90
5960;DHT22;3006;50.956;7.002;2024-02-16T14:50:17;13.60;96.10
5960;DHT22;3006;50.956;7.002;2024-02-16T14:52:45;13.50;96.20
5960;DHT22;3006;50.956;7.002;2024-02-16T14:55:14;13.50;96.40
5960;DHT22;3006;50.956;7.002;2024-02-16T14:57:43;13.60;97.70
5960;DHT22;3006;50.956;7.002;2024-02-16T15:00:12;13.60;97.70
5960;DHT22;3006;50.956;7.002;2024-02-16T15:02:42;13.50;98.00
5960;DHT22;3006;50.956;7.002;2024-02-16T15:05:10;13.30;99.10
5960;DHT22;3006;50.956;7.002;2024-02-16T15:07:40;13.30;99.90
5960;DHT22;3006;50.956;7.002;2024-02-16T15:10:08;13.30;99.90
5960;DHT22;3006;50.956;7.002;2024-02-16T15:12:37;13.30;99.90
5960;DHT22;3006;50.956;7.002;2024-02-16T15:15:07;13.30;99.90
5960;DHT22;3006;50.956;7.002;2024-02-16T15:17:36;13.30;99.90
5960;DHT22;3006;50.956;7.002;2024-02-16T15:20:07;13.30;99.90
5960;DHT22;3006;50.956;7.002;2024-02-16T15:22:35;13.20;99.90
5960;DHT22;3006;50.956;7.002;2024-02-16T15:25:15;13.10;99.90
5960;DHT22;3006;50.956;7.002;2024-02-16T15:27:43;13.10;99.90
5960;DHT22;3006;50.956;7.002;2024-02-16T15:30:12;13.10;99.90
5960;DHT22;3006;50.956;7.002;2024-02-16T15:32:41;13.10;99.90
5960;DHT22;3006;50.956;7.002;2024-02-16T15:35:11;13.10;99.90
5960;DHT22;3006;50.956;7.002;2024-02-16T15:37:39;13.10;99.90
5960;DHT22;3006;50.956;7.002;2024-02-16T15:40:09;13.10;99.90
5960;DHT22;3006;50.956;7.002;2024-02-16T15:42:39;13.10;99.90
5960;DHT22;3006;50.956;7.002;2024-02-16T15:45:09;13.10;99.90
5960;DHT22;3006;50.956;7.002;2024-02-16T15:47:38;13.10;99.90
5960;DHT22;3006;50.956;7.002;2024-02-16T15:50:07;13.10;99.90
5960;DHT22;3006;50.956;7.002;2024-02-16T15:52:37;13.10;99.90
5960;DHT22;3006;50.956;7.002;2024-02-16T15:55:06;13.10;99.90
5960;DHT22;3006;50.956;7.002;2024-02-16T15:57:34;13.10;99.90
5960;DHT22;3006;50.956;7.002;2024-02-16T16:00:03;13.00;99.90
5960;DHT22;3006;50.956;7.002;2024-02-16T16:02:33;12.90;99.90
5960;DHT22;3006;50.956;7.002;2024-02-16T16:05:01;12.90;99.90
5960;DHT22;3006;50.956;7.002;2024-02-16T16:07:30;13.00;99.90
5960;DHT22;3006;50.956;7.002;2024-02-16T16:09:59;12.90;99.90
5960;DHT22;3006;50.956;7.002;2024-02-16T16:12:28;12.90;99.90
5960;DHT22;3006;50.956;7.002;2024-02-16T16:14:56;12.90;99.90